Latest Weather Observations for Tennant Creek

IDD60801

Issued at 6:31 pm CST Thursday 3 September 2015 (issued every 30 minutes, with the page automatically refreshed every 10 minutes)

About weather observations | Map of weather stations | Latest weather observations for NT | Other Formats
Station Details ID: 015135 Name: TENNANT CREEK AIRPORT Lat: -19.64 Lon: 134.18 Height: 375.7 m
Data from the previous 72 hours. | See also: Recent months at Tennant Creek
Date/Time
CST
Temp
°C
App
Temp
°C
Dew
Point
Rel
Hum
%
Delta-T
°C
Wind Press
QNH
hPa
Press
MSL
hPa
Rain
since 9 am
mm
Dir
 
Spd
km/h
Gust
km/h
Spd
kts
Gust
kts
03/06:30pm 24.3 20.2 -0.3 19 11.4 E 11 15 6 8 1019.1 - 0.0
03/06:00pm 25.8 20.3 -1.9 16 12.6 E 17 24 9 13 1018.9 1017.0 0.0
03/05:30pm 26.6 20.7 -2.6 14 13.2 E 19 24 10 13 1018.8 - 0.0
03/05:00pm 27.0 21.4 -3.0 14 13.5 E 17 26 9 14 1018.6 - 0.0
03/04:30pm 27.6 22.0 -3.3 13 13.9 E 17 26 9 14 1018.7 - 0.0
03/04:00pm 27.2 21.5 -3.4 13 13.7 E 17 30 9 16 1018.7 - 0.0
03/03:30pm 27.8 22.5 -3.7 12 14.1 E 15 24 8 13 1018.9 - 0.0
03/03:00pm 26.9 21.6 -3.8 13 13.6 E 15 24 8 13 1019.1 1017.2 0.0
03/02:30pm 26.6 20.9 -4.1 13 13.5 E 17 26 9 14 1019.3 - 0.0
03/02:00pm 26.0 19.6 -5.4 12 13.4 E 20 30 11 16 1019.7 - 0.0
03/01:30pm 25.7 19.2 -5.7 12 13.3 ESE 20 30 11 16 1020.3 - 0.0
03/01:00pm 25.1 18.2 -5.9 12 13.0 E 22 30 12 16 1020.7 - 0.0
03/12:30pm 24.4 16.4 -5.7 13 12.6 E 28 33 15 18 1021.0 - 0.0
03/12:00pm 24.1 15.6 -6.7 12 12.6 E 30 39 16 21 1021.5 1019.6 0.0
03/11:30am 23.5 15.7 -7.4 12 12.4 E 26 39 14 21 1021.9 - 0.0
03/11:00am 22.4 13.4 -8.4 12 12.0 E 32 44 17 24 1022.2 - 0.0
03/10:30am 21.8 12.6 -8.5 12 11.7 E 33 46 18 25 1022.5 - 0.0
03/10:02am 21.1 11.6 -7.6 14 11.2 E 35 54 19 29 1022.6 - 0.0
03/10:00am 21.1 10.8 -7.6 14 11.2 E 39 54 21 29 1022.5 - 0.0
03/09:30am 20.5 9.9 -7.6 14 10.9 E 41 54 22 29 1022.6 - 0.0
03/09:00am 19.7 9.1 -7.6 15 10.5 E 41 52 22 28 1022.4 1020.5 0.0
03/08:48am 19.2 8.9 -7.9 15 10.3 E 39 57 21 31 1022.3 - 0.0
03/08:30am 19.1 8.8 -7.6 15 10.2 E 39 54 21 29 1022.1 - 0.0
03/08:10am 18.7 9.1 -8.8 14 10.2 E 35 63 19 34 1022.0 - 0.0
03/08:00am 18.1 9.5 -7.5 17 9.7 E 30 39 16 21 1021.9 - 0.0
03/07:30am 16.5 9.5 -3.1 26 8.0 E 24 33 13 18 1021.4 - 0.0
03/07:00am 15.8 9.3 -2.4 28 7.5 E 22 28 12 15 1021.0 - 0.0
03/06:30am 16.1 9.5 -3.5 26 7.9 E 22 30 12 16 1020.5 - 0.0
03/06:00am 16.6 9.6 -3.7 24 8.2 E 24 32 13 17 1020.0 1018.1 0.0
03/05:30am 16.8 10.8 -1.7 28 7.8 E 20 26 11 14 1019.8 - 0.0
03/05:00am 17.7 11.2 -2.2 25 8.4 E 22 30 12 16 1019.2 - 0.0
03/04:30am 17.5 12.3 0.4 31 7.6 E 17 24 9 13 1018.9 - 0.0
03/04:00am 18.4 12.5 -0.5 28 8.3 E 20 32 11 17 1018.7 - 0.0
03/03:30am 18.6 13.0 1.0 30 8.0 E 20 28 11 15 1018.5 - 0.0
03/03:00am 18.6 13.2 2.6 34 7.5 ESE 20 26 11 14 1018.5 1016.5 0.0
03/02:30am 18.6 14.9 4.4 39 6.9 ESE 13 17 7 9 1018.5 - 0.0
03/02:00am 19.8 15.5 3.3 33 7.9 ESE 15 22 8 12 1018.3 - 0.0
03/01:30am 20.1 16.3 3.8 34 7.9 SE 13 22 7 12 1018.1 - 0.0
03/01:00am 20.6 16.8 4.1 33 8.1 SE 13 20 7 11 1018.1 - 0.0
03/12:30am 21.7 16.4 3.1 29 9.0 SE 20 28 11 15 1018.0 - 0.0
03/12:00am 22.7 18.1 1.6 25 10.0 S 15 22 8 12 1018.0 1016.0 0.0
 
Date/Time
CST
Temp
°C
App
Temp
°C
Dew
Point
Rel
Hum
%
Delta-T
°C
Wind Press
QNH
hPa
Press
MSL
hPa
Rain
since 9 am
mm
Dir
 
Spd
km/h
Gust
km/h
Spd
kts
Gust
kts
02/11:30pm 23.6 20.0 2.7 25 10.2 S 11 15 6 8 1017.8 - 0.0
02/11:00pm 23.2 19.5 4.5 29 9.4 SSW 13 17 7 9 1017.8 - 0.0
02/10:30pm 21.7 19.6 8.4 42 7.1 SSW 9 13 5 7 1017.6 - 0.0
02/10:00pm 21.4 21.1 8.5 43 6.9 CALM 0 6 0 3 1017.3 - 0.0
02/09:30pm 22.5 22.2 8.8 41 7.4 CALM 0 4 0 2 1017.0 - 0.0
02/09:00pm 23.2 22.4 11.0 46 6.9 E 6 6 3 3 1016.8 1014.9 0.0
02/08:30pm 23.0 22.6 12.5 51 6.1 E 6 6 3 3 1016.5 - 0.0
02/08:00pm 23.9 23.7 11.9 47 6.9 NE 4 9 2 5 1016.3 - 0.0
02/07:30pm 24.1 24.7 11.8 46 7.1 CALM 0 0 0 0 1015.9 - 0.0
02/07:00pm 25.6 26.1 11.6 41 8.1 CALM 0 0 0 0 1015.6 - 0.0
02/06:30pm 27.3 25.9 9.0 31 10.2 W 6 7 3 4 1015.3 - 0.0
02/06:00pm 29.2 26.6 4.2 20 13.0 WSW 7 11 4 6 1015.0 1013.0 0.0
02/05:30pm 30.8 27.3 1.1 15 14.8 WSW 9 13 5 7 1014.7 - 0.0
02/05:00pm 31.3 26.9 0.2 13 15.3 SW 13 20 7 11 1014.7 - 0.0
02/04:30pm 30.8 27.1 -0.2 13 15.1 S 9 26 5 14 1014.5 - 0.0
02/04:00pm 31.9 27.3 -0.9 12 15.9 SSW 13 32 7 17 1014.4 - 0.0
02/03:30pm 31.1 26.4 0.6 14 15.1 SSW 15 28 8 15 1014.4 - 0.0
02/03:00pm 31.7 26.7 -1.0 12 15.8 SSW 15 26 8 14 1014.5 1012.6 0.0
02/02:30pm 31.2 25.9 -0.5 13 15.4 S 17 24 9 13 1014.6 - 0.0
02/02:00pm 30.7 26.5 -0.9 13 15.2 SW 11 20 6 11 1015.1 - 0.0
02/01:30pm 31.2 26.7 -0.5 13 15.4 SW 13 24 7 13 1015.4 - 0.0
02/01:00pm 30.2 26.5 0.0 14 14.7 SSW 9 20 5 11 1015.8 - 0.0
02/12:30pm 30.1 26.1 0.6 15 14.5 SSW 11 22 6 12 1016.2 - 0.0
02/12:00pm 30.1 26.0 2.5 17 14.0 SSW 13 24 7 13 1016.6 1014.7 0.0
02/11:30am 28.9 24.9 2.8 18 13.2 S 13 20 7 11 1016.9 - 0.0
02/11:00am 28.4 24.5 3.5 20 12.7 SE 13 20 7 11 1017.1 - 0.0
02/10:30am 28.3 25.2 5.6 23 12.0 S 11 24 6 13 1017.3 - 0.0
02/10:00am 25.9 23.2 5.6 27 10.6 SSW 9 13 5 7 1017.3 - 0.0
02/09:30am 25.8 24.1 8.2 32 9.6 S 7 13 4 7 1017.0 - 0.0
02/09:00am 24.3 23.1 9.7 39 8.1 WSW 6 9 3 5 1016.8 1014.9 0.0
02/08:30am 22.9 22.0 10.8 46 6.8 WSW 6 9 3 5 1016.4 - 0.0
02/08:00am 21.5 20.8 12.0 54 5.4 WNW 7 7 4 4 1016.2 - 0.0
02/07:30am 20.8 20.5 12.6 59 4.7 WNW 6 7 3 4 1015.6 - 0.0
02/07:00am 20.1 19.0 12.0 59 4.6 W 9 11 5 6 1014.7 - 0.0
02/06:30am 20.3 18.7 11.6 57 4.9 W 11 13 6 7 1014.3 - 0.0
02/06:00am 20.6 19.5 11.8 57 5.0 W 9 11 5 6 1013.9 1012.0 0.0
02/05:30am 21.9 20.6 11.3 51 6.0 WNW 9 11 5 6 1013.8 - 0.0
02/05:00am 21.7 20.5 11.5 52 5.8 WNW 9 13 5 7 1013.5 - 0.0
02/04:30am 22.2 20.8 11.0 49 6.3 WNW 9 13 5 7 1013.3 - 0.0
02/04:00am 21.5 20.1 11.0 51 5.9 WNW 9 13 5 7 1013.2 - 0.0
02/03:30am 22.8 22.0 11.6 49 6.4 W 7 11 4 6 1013.1 - 0.0
02/03:00am 24.3 21.8 9.8 40 8.1 WNW 13 17 7 9 1013.3 1011.3 0.0
02/02:30am 24.7 22.0 9.1 37 8.6 WNW 13 20 7 11 1013.2 - 0.0
02/02:00am 24.6 22.3 9.0 37 8.6 NW 11 15 6 8 1013.0 - 0.0
02/01:30am 25.1 22.9 9.2 36 8.8 NW 11 13 6 7 1013.1 - 0.0
02/01:00am 24.6 22.4 9.5 38 8.4 NW 11 13 6 7 1013.3 - 0.0
02/12:30am 25.0 23.2 9.3 37 8.7 NW 9 11 5 6 1013.6 - 0.0
02/12:00am 25.1 23.1 8.7 35 9.0 WNW 9 13 5 7 1013.6 1011.6 0.0
 
Date/Time
CST
Temp
°C
App
Temp
°C
Dew
Point
Rel
Hum
%
Delta-T
°C
Wind Press
QNH
hPa
Press
MSL
hPa
Rain
since 9 am
mm
Dir
 
Spd
km/h
Gust
km/h
Spd
kts
Gust
kts
01/11:30pm 24.8 23.0 9.3 37 8.6 WNW 9 11 5 6 1013.6 - 0.0
01/11:00pm 25.2 23.2 8.6 35 9.1 WNW 9 13 5 7 1013.5 - 0.0
01/10:30pm 25.5 23.6 9.1 35 9.1 WNW 9 11 5 6 1013.5 - 0.0
01/10:00pm 25.9 24.0 9.2 34 9.3 NW 9 11 5 6 1013.5 - 0.0
01/09:30pm 25.8 23.4 8.8 34 9.4 NW 11 13 6 7 1013.5 - 0.0
01/09:00pm 25.6 23.2 8.7 34 9.3 NW 11 11 6 6 1013.3 1011.3 0.0
01/08:30pm 26.0 23.9 8.3 32 9.7 WNW 9 11 5 6 1013.0 - 0.0
01/08:00pm 26.5 24.6 9.1 33 9.7 WNW 9 11 5 6 1012.6 - 0.0
01/07:30pm 27.1 25.6 9.2 32 10.0 NW 7 9 4 5 1012.0 - 0.0
01/07:00pm 28.0 25.9 8.1 28 11.0 WNW 9 11 5 6 1011.6 - 0.0
01/06:30pm 29.3 26.0 6.3 23 12.4 NW 13 17 7 9 1011.2 - 0.0
01/06:00pm 31.1 27.4 4.7 19 14.0 WNW 13 22 7 12 1011.0 1009.0 0.0
01/05:30pm 31.7 27.1 3.9 17 14.6 NW 17 24 9 13 1010.8 - 0.0
01/05:00pm 32.7 26.6 2.5 15 15.6 NW 24 39 13 21 1010.7 - 0.0
01/04:30pm 33.0 26.5 2.4 14 15.8 NW 26 41 14 22 1010.7 - 0.0
01/04:00pm 33.0 26.7 1.6 13 16.0 NW 24 39 13 21 1010.8 - 0.0
01/03:30pm 33.4 26.6 0.6 12 16.5 NW 26 41 14 22 1011.0 - 0.0
01/03:00pm 33.3 26.7 -0.2 12 16.6 WNW 24 41 13 22 1011.2 1009.2 0.0
01/02:30pm 33.2 26.8 -1.4 11 16.8 NNW 22 39 12 21 1011.7 - 0.0
01/02:00pm 32.3 25.4 -2.5 10 16.5 NNW 24 35 13 19 1012.3 - 0.0
01/01:30pm 33.4 25.9 -4.4 8 17.5 NNW 26 44 14 24 1012.7 - 0.0
01/01:00pm 31.9 24.2 -6.1 8 16.9 N 26 35 14 19 1013.2 - 0.0
01/12:30pm 32.0 24.0 -5.8 8 16.9 N 28 35 15 19 1013.9 - 0.0
01/12:00pm 30.1 22.5 -5.8 9 15.8 N 26 35 14 19 1014.2 1012.3 0.0
01/11:30am 29.0 20.7 -9.2 7 15.7 N 28 35 15 19 1014.6 - 0.0
01/11:00am 28.1 18.8 -10.0 7 15.3 NNE 33 48 18 26 1015.0 - 0.0
01/10:30am 26.6 17.0 -8.7 9 14.3 NNE 35 46 19 25 1015.3 - 0.0
01/10:00am 25.6 16.8 -6.4 11 13.4 NNE 32 43 17 23 1015.6 - 0.0
01/09:30am 24.1 15.0 -7.7 11 12.8 NNE 33 44 18 24 1015.6 - 0.0
01/09:00am 22.5 13.8 -5.6 15 11.6 NNE 32 44 17 24 1015.7 1013.7 0.0
01/08:30am 20.5 13.0 -4.3 18 10.3 NNE 26 35 14 19 1015.8 - 0.0
01/08:00am 18.5 11.1 -3.4 22 9.1 NNE 26 33 14 18 1015.6 - 0.0
01/07:30am 17.4 10.2 -2.0 26 8.2 NNE 26 33 14 18 1015.3 - 0.0
01/07:00am 17.4 10.6 -1.6 27 8.1 NNE 24 32 13 17 1015.1 - 0.0
01/06:30am 18.7 11.8 -2.6 23 9.0 NNE 24 33 13 18 1014.8 - 0.0
01/06:00am 19.8 13.5 -3.6 20 9.8 NE 20 26 11 14 1014.2 1012.3 0.0
01/05:30am 19.0 13.1 -1.9 24 9.0 ENE 19 24 10 13 1014.1 - 0.0
01/05:00am 19.1 13.7 -1.7 24 9.0 ENE 17 22 9 12 1014.1 - 0.0
01/04:30am 18.8 13.4 -1.5 25 8.8 E 17 22 9 12 1014.1 - 0.0
01/04:00am 18.8 13.4 -1.2 26 8.7 E 17 24 9 13 1014.3 - 0.0
01/03:30am 19.3 13.9 -1.7 24 9.1 E 17 24 9 13 1014.6 - 0.0
01/03:00am 19.9 14.4 -2.1 22 9.5 E 17 22 9 12 1014.7 1012.8 0.0
01/02:30am 20.4 14.4 -1.8 22 9.7 ENE 20 28 11 15 1014.7 - 0.0
01/02:00am 19.8 14.8 -1.5 23 9.3 E 15 17 8 9 1015.2 - 0.0
01/01:30am 20.2 14.8 -1.5 23 9.5 E 17 22 9 12 1015.5 - 0.0
01/01:00am 20.6 15.1 -2.3 21 9.9 E 17 20 9 11 1015.9 - 0.0
01/12:30am 19.8 15.4 0.4 27 8.8 E 13 15 7 8 1016.2 - 0.0
01/12:00am 19.7 15.7 0.5 27 8.7 E 11 13 6 7 1016.4 1014.9 0.0
 
Date/Time
CST
Temp
°C
App
Temp
°C
Dew
Point
Rel
Hum
%
Delta-T
°C
Wind Press
QNH
hPa
Press
MSL
hPa
Rain
since 9 am
mm
Dir
 
Spd
km/h
Gust
km/h
Spd
kts
Gust
kts
31/11:30pm 20.2 16.2 0.4 26 9.0 E 11 13 6 7 1016.6 - 0.0
31/11:00pm 19.8 16.4 1.8 30 8.4 E 9 11 5 6 1016.8 - 0.0
31/10:30pm 20.5 16.9 0.6 26 9.1 E 9 11 5 6 1016.9 - 0.0
31/10:00pm 20.7 17.2 1.0 27 9.1 E 9 11 5 6 1016.9 - 0.0
31/09:30pm 21.7 17.9 -0.7 22 10.1 E 9 11 5 6 1016.8 - 0.0
31/09:00pm 22.3 18.0 -1.5 20 10.6 E 11 15 6 8 1016.6 1015.2 0.0
31/08:30pm 21.7 18.5 2.8 28 9.1 E 9 9 5 5 1016.3 - 0.0
31/08:00pm 22.3 19.0 2.3 26 9.6 E 9 9 5 5 1016.0 - 0.0
31/07:30pm 23.2 20.2 1.9 24 10.2 E 7 9 4 5 1015.7 - 0.0
31/07:00pm 24.2 20.8 -0.5 19 11.4 E 7 9 4 5 1015.5 - 0.0

Other Formats:

Comma delimited format used in spreadsheet applications
http://www.bom.gov.au/fwo/IDD60801/IDD60801.94238.axf

JavaScript Object Notation format (JSON) in row-major order
http://www.bom.gov.au/fwo/IDD60801/IDD60801.94238.json